sensor_id;sensor_type;location;lat;lon;timestamp;P1;durP1;ratioP1;P2;durP2;ratioP2
73107;SDS011;61559;50.476;15.588;2022-12-18T00:00:54;62.10;;;26.20;;
73107;SDS011;61559;50.476;15.588;2022-12-18T00:03:42;59.80;;;24.50;;
73107;SDS011;61559;50.476;15.588;2022-12-18T00:06:15;62.70;;;27.50;;
73107;SDS011;61559;50.476;15.588;2022-12-18T00:08:47;65.90;;;27.80;;
73107;SDS011;61559;50.476;15.588;2022-12-18T00:11:19;61.80;;;28.30;;
73107;SDS011;61559;50.476;15.588;2022-12-18T00:13:52;67.00;;;26.40;;
73107;SDS011;61559;50.476;15.588;2022-12-18T00:16:26;62.30;;;28.00;;
73107;SDS011;61559;50.476;15.588;2022-12-18T00:19:01;65.60;;;26.00;;
73107;SDS011;61559;50.476;15.588;2022-12-18T00:21:33;56.20;;;23.70;;
73107;SDS011;61559;50.476;15.588;2022-12-18T00:24:05;58.70;;;23.10;;
73107;SDS011;61559;50.476;15.588;2022-12-18T00:26:37;52.60;;;23.90;;
73107;SDS011;61559;50.476;15.588;2022-12-18T00:29:11;56.50;;;23.60;;
73107;SDS011;61559;50.476;15.588;2022-12-18T00:31:43;55.40;;;23.70;;
73107;SDS011;61559;50.476;15.588;2022-12-18T00:34:15;54.50;;;23.50;;
73107;SDS011;61559;50.476;15.588;2022-12-18T00:36:46;72.80;;;27.60;;
73107;SDS011;61559;50.476;15.588;2022-12-18T00:39:18;61.50;;;25.20;;
73107;SDS011;61559;50.476;15.588;2022-12-18T00:41:49;53.90;;;21.00;;
73107;SDS011;61559;50.476;15.588;2022-12-18T00:44:38;53.80;;;21.90;;
73107;SDS011;61559;50.476;15.588;2022-12-18T00:47:09;53.70;;;19.90;;
73107;SDS011;61559;50.476;15.588;2022-12-18T00:49:40;53.40;;;20.00;;
73107;SDS011;61559;50.476;15.588;2022-12-18T00:52:11;54.80;;;19.40;;
73107;SDS011;61559;50.476;15.588;2022-12-18T00:54:42;45.70;;;18.60;;
73107;SDS011;61559;50.476;15.588;2022-12-18T00:57:13;48.60;;;18.30;;
73107;SDS011;61559;50.476;15.588;2022-12-18T00:59:47;47.30;;;20.00;;
73107;SDS011;61559;50.476;15.588;2022-12-18T01:02:18;58.30;;;23.00;;
73107;SDS011;61559;50.476;15.588;2022-12-18T01:04:50;55.00;;;22.70;;
73107;SDS011;61559;50.476;15.588;2022-12-18T01:07:21;48.00;;;19.90;;
73107;SDS011;61559;50.476;15.588;2022-12-18T01:09:52;47.60;;;18.50;;
73107;SDS011;61559;50.476;15.588;2022-12-18T01:12:23;49.10;;;18.40;;
73107;SDS011;61559;50.476;15.588;2022-12-18T01:14:54;45.70;;;17.30;;
73107;SDS011;61559;50.476;15.588;2022-12-18T01:17:25;45.10;;;18.60;;
73107;SDS011;61559;50.476;15.588;2022-12-18T01:19:56;44.00;;;19.00;;
73107;SDS011;61559;50.476;15.588;2022-12-18T01:22:27;47.80;;;20.70;;
73107;SDS011;61559;50.476;15.588;2022-12-18T01:24:58;46.80;;;18.80;;
73107;SDS011;61559;50.476;15.588;2022-12-18T01:27:29;47.20;;;19.60;;
73107;SDS011;61559;50.476;15.588;2022-12-18T01:30:02;47.20;;;19.70;;
73107;SDS011;61559;50.476;15.588;2022-12-18T01:32:34;53.30;;;21.70;;
73107;SDS011;61559;50.476;15.588;2022-12-18T01:35:05;58.50;;;21.30;;
73107;SDS011;61559;50.476;15.588;2022-12-18T01:37:37;46.50;;;19.30;;
73107;SDS011;61559;50.476;15.588;2022-12-18T01:40:09;47.30;;;19.50;;
73107;SDS011;61559;50.476;15.588;2022-12-18T01:42:40;49.90;;;19.40;;
73107;SDS011;61559;50.476;15.588;2022-12-18T01:45:25;56.50;;;19.50;;
73107;SDS011;61559;50.476;15.588;2022-12-18T01:47:58;45.90;;;17.40;;
73107;SDS011;61559;50.476;15.588;2022-12-18T01:50:32;50.10;;;17.80;;
73107;SDS011;61559;50.476;15.588;2022-12-18T01:53:06;41.30;;;15.20;;
73107;SDS011;61559;50.476;15.588;2022-12-18T01:55:41;51.30;;;19.40;;
73107;SDS011;61559;50.476;15.588;2022-12-18T01:58:16;61.80;;;20.70;;
73107;SDS011;61559;50.476;15.588;2022-12-18T02:00:48;50.60;;;18.70;;
73107;SDS011;61559;50.476;15.588;2022-12-18T02:03:19;63.60;;;22.10;;
73107;SDS011;61559;50.476;15.588;2022-12-18T02:05:54;68.90;;;22.10;;
73107;SDS011;61559;50.476;15.588;2022-12-18T02:08:36;48.40;;;20.00;;
73107;SDS011;61559;50.476;15.588;2022-12-18T02:11:14;60.70;;;20.00;;
73107;SDS011;61559;50.476;15.588;2022-12-18T02:13:53;63.00;;;19.60;;
73107;SDS011;61559;50.476;15.588;2022-12-18T02:16:34;55.50;;;18.60;;
73107;SDS011;61559;50.476;15.588;2022-12-18T02:19:32;58.20;;;19.70;;
73107;SDS011;61559;50.476;15.588;2022-12-18T02:22:29;47.40;;;15.90;;
73107;SDS011;61559;50.476;15.588;2022-12-18T02:25:16;47.60;;;15.80;;
73107;SDS011;61559;50.476;15.588;2022-12-18T02:30:29;54.80;;;20.60;;
73107;SDS011;61559;50.476;15.588;2022-12-18T02:33:04;54.90;;;18.70;;
73107;SDS011;61559;50.476;15.588;2022-12-18T02:35:36;51.90;;;19.00;;
73107;SDS011;61559;50.476;15.588;2022-12-18T02:38:10;54.50;;;19.10;;
73107;SDS011;61559;50.476;15.588;2022-12-18T02:40:43;56.30;;;20.50;;
73107;SDS011;61559;50.476;15.588;2022-12-18T02:43:15;57.50;;;21.20;;
73107;SDS011;61559;50.476;15.588;2022-12-18T02:45:52;61.10;;;21.00;;
73107;SDS011;61559;50.476;15.588;2022-12-18T02:48:28;56.30;;;19.80;;
73107;SDS011;61559;50.476;15.588;2022-12-18T02:51:03;55.10;;;19.60;;
73107;SDS011;61559;50.476;15.588;2022-12-18T02:53:43;47.10;;;16.40;;
73107;SDS011;61559;50.476;15.588;2022-12-18T02:56:21;47.40;;;17.80;;
73107;SDS011;61559;50.476;15.588;2022-12-18T02:58:59;45.40;;;16.80;;
73107;SDS011;61559;50.476;15.588;2022-12-18T03:01:35;59.40;;;18.10;;
73107;SDS011;61559;50.476;15.588;2022-12-18T03:04:14;50.10;;;18.20;;
73107;SDS011;61559;50.476;15.588;2022-12-18T03:06:51;61.30;;;20.20;;
73107;SDS011;61559;50.476;15.588;2022-12-18T03:09:27;59.10;;;19.30;;
73107;SDS011;61559;50.476;15.588;2022-12-18T03:12:03;65.10;;;19.90;;
73107;SDS011;61559;50.476;15.588;2022-12-18T03:14:54;56.30;;;19.30;;
73107;SDS011;61559;50.476;15.588;2022-12-18T03:17:30;54.30;;;20.20;;
73107;SDS011;61559;50.476;15.588;2022-12-18T03:20:04;55.00;;;18.40;;
73107;SDS011;61559;50.476;15.588;2022-12-18T03:22:39;68.60;;;19.70;;
73107;SDS011;61559;50.476;15.588;2022-12-18T03:25:14;57.90;;;19.40;;
73107;SDS011;61559;50.476;15.588;2022-12-18T03:27:46;64.90;;;21.00;;
73107;SDS011;61559;50.476;15.588;2022-12-18T03:30:19;52.60;;;18.10;;
73107;SDS011;61559;50.476;15.588;2022-12-18T03:32:52;51.70;;;19.60;;
73107;SDS011;61559;50.476;15.588;2022-12-18T03:35:30;57.50;;;20.30;;
73107;SDS011;61559;50.476;15.588;2022-12-18T03:38:04;55.10;;;18.80;;
73107;SDS011;61559;50.476;15.588;2022-12-18T03:40:38;59.20;;;18.50;;
73107;SDS011;61559;50.476;15.588;2022-12-18T03:43:18;55.30;;;19.20;;
73107;SDS011;61559;50.476;15.588;2022-12-18T03:45:58;51.30;;;18.00;;
73107;SDS011;61559;50.476;15.588;2022-12-18T03:48:37;47.40;;;17.50;;
73107;SDS011;61559;50.476;15.588;2022-12-18T03:51:14;60.80;;;18.50;;
73107;SDS011;61559;50.476;15.588;2022-12-18T03:53:53;43.90;;;16.60;;
73107;SDS011;61559;50.476;15.588;2022-12-18T03:56:28;51.00;;;16.40;;
73107;SDS011;61559;50.476;15.588;2022-12-18T03:59:01;51.40;;;17.60;;
73107;SDS011;61559;50.476;15.588;2022-12-18T04:01:34;51.60;;;16.90;;
73107;SDS011;61559;50.476;15.588;2022-12-18T04:04:09;55.80;;;18.00;;
73107;SDS011;61559;50.476;15.588;2022-12-18T04:06:43;56.30;;;17.30;;
73107;SDS011;61559;50.476;15.588;2022-12-18T04:09:17;55.30;;;19.20;;
73107;SDS011;61559;50.476;15.588;2022-12-18T04:11:50;59.70;;;18.30;;
73107;SDS011;61559;50.476;15.588;2022-12-18T04:14:22;55.40;;;17.60;;
73107;SDS011;61559;50.476;15.588;2022-12-18T04:16:53;50.20;;;17.50;;
73107;SDS011;61559;50.476;15.588;2022-12-18T04:19:24;52.90;;;17.60;;
73107;SDS011;61559;50.476;15.588;2022-12-18T04:21:55;41.20;;;13.40;;
73107;SDS011;61559;50.476;15.588;2022-12-18T04:24:26;49.60;;;17.20;;
73107;SDS011;61559;50.476;15.588;2022-12-18T04:26:58;46.30;;;16.20;;
73107;SDS011;61559;50.476;15.588;2022-12-18T04:29:29;53.30;;;18.40;;
73107;SDS011;61559;50.476;15.588;2022-12-18T04:32:00;46.90;;;15.70;;
73107;SDS011;61559;50.476;15.588;2022-12-18T04:34:31;46.20;;;17.20;;
73107;SDS011;61559;50.476;15.588;2022-12-18T04:37:02;55.70;;;17.70;;
73107;SDS011;61559;50.476;15.588;2022-12-18T04:39:33;43.60;;;15.90;;
73107;SDS011;61559;50.476;15.588;2022-12-18T04:42:05;40.60;;;16.10;;
73107;SDS011;61559;50.476;15.588;2022-12-18T04:44:35;52.70;;;18.30;;
73107;SDS011;61559;50.476;15.588;2022-12-18T04:47:06;51.60;;;18.10;;
73107;SDS011;61559;50.476;15.588;2022-12-18T04:49:38;46.10;;;15.00;;
73107;SDS011;61559;50.476;15.588;2022-12-18T04:52:08;47.10;;;16.60;;
73107;SDS011;61559;50.476;15.588;2022-12-18T04:54:39;57.30;;;17.70;;
73107;SDS011;61559;50.476;15.588;2022-12-18T04:57:11;57.40;;;15.80;;
73107;SDS011;61559;50.476;15.588;2022-12-18T04:59:42;44.60;;;17.70;;
73107;SDS011;61559;50.476;15.588;2022-12-18T05:02:13;55.90;;;18.70;;
73107;SDS011;61559;50.476;15.588;2022-12-18T05:04:44;51.10;;;16.40;;
73107;SDS011;61559;50.476;15.588;2022-12-18T05:07:15;46.80;;;17.20;;
73107;SDS011;61559;50.476;15.588;2022-12-18T05:09:46;51.80;;;15.20;;
73107;SDS011;61559;50.476;15.588;2022-12-18T05:12:17;45.50;;;15.60;;
73107;SDS011;61559;50.476;15.588;2022-12-18T05:14:48;44.10;;;14.80;;
73107;SDS011;61559;50.476;15.588;2022-12-18T05:17:20;44.60;;;15.40;;
73107;SDS011;61559;50.476;15.588;2022-12-18T05:19:51;42.30;;;15.40;;
73107;SDS011;61559;50.476;15.588;2022-12-18T05:22:22;46.00;;;16.50;;
73107;SDS011;61559;50.476;15.588;2022-12-18T05:27:23;49.10;;;16.70;;
73107;SDS011;61559;50.476;15.588;2022-12-18T05:29:54;48.10;;;15.80;;
73107;SDS011;61559;50.476;15.588;2022-12-18T05:32:25;39.40;;;14.10;;
73107;SDS011;61559;50.476;15.588;2022-12-18T05:34:56;44.50;;;14.90;;
73107;SDS011;61559;50.476;15.588;2022-12-18T05:37:27;44.80;;;13.80;;
73107;SDS011;61559;50.476;15.588;2022-12-18T05:39:59;38.00;;;14.30;;
73107;SDS011;61559;50.476;15.588;2022-12-18T05:42:30;35.00;;;12.90;;
73107;SDS011;61559;50.476;15.588;2022-12-18T05:45:01;34.40;;;13.50;;
73107;SDS011;61559;50.476;15.588;2022-12-18T05:47:33;47.50;;;18.10;;
73107;SDS011;61559;50.476;15.588;2022-12-18T05:50:05;28.10;;;12.00;;
73107;SDS011;61559;50.476;15.588;2022-12-18T05:52:37;39.00;;;13.60;;
73107;SDS011;61559;50.476;15.588;2022-12-18T05:55:08;25.50;;;8.50;;
73107;SDS011;61559;50.476;15.588;2022-12-18T05:57:39;19.50;;;7.40;;
73107;SDS011;61559;50.476;15.588;2022-12-18T06:00:11;23.10;;;9.60;;
73107;SDS011;61559;50.476;15.588;2022-12-18T06:02:47;28.90;;;9.70;;
73107;SDS011;61559;50.476;15.588;2022-12-18T06:05:18;37.80;;;11.60;;
73107;SDS011;61559;50.476;15.588;2022-12-18T06:07:50;26.00;;;9.60;;
73107;SDS011;61559;50.476;15.588;2022-12-18T06:10:21;47.40;;;15.10;;
73107;SDS011;61559;50.476;15.588;2022-12-18T06:12:52;76.90;;;25.40;;
73107;SDS011;61559;50.476;15.588;2022-12-18T06:15:22;29.90;;;10.80;;
73107;SDS011;61559;50.476;15.588;2022-12-18T06:17:54;32.30;;;13.10;;
73107;SDS011;61559;50.476;15.588;2022-12-18T06:20:25;69.00;;;23.60;;
73107;SDS011;61559;50.476;15.588;2022-12-18T06:23:00;32.20;;;12.00;;
73107;SDS011;61559;50.476;15.588;2022-12-18T06:25:31;23.70;;;8.00;;
73107;SDS011;61559;50.476;15.588;2022-12-18T06:28:03;34.50;;;10.20;;
73107;SDS011;61559;50.476;15.588;2022-12-18T06:30:34;40.70;;;12.40;;
73107;SDS011;61559;50.476;15.588;2022-12-18T06:33:05;26.00;;;9.60;;
73107;SDS011;61559;50.476;15.588;2022-12-18T06:35:37;33.70;;;12.00;;
73107;SDS011;61559;50.476;15.588;2022-12-18T06:38:08;26.30;;;9.60;;
73107;SDS011;61559;50.476;15.588;2022-12-18T06:40:39;35.00;;;13.60;;
73107;SDS011;61559;50.476;15.588;2022-12-18T06:43:10;15.40;;;6.60;;
73107;SDS011;61559;50.476;15.588;2022-12-18T06:45:41;18.00;;;7.00;;
73107;SDS011;61559;50.476;15.588;2022-12-18T06:48:12;18.80;;;7.10;;
73107;SDS011;61559;50.476;15.588;2022-12-18T06:50:43;37.40;;;13.60;;
73107;SDS011;61559;50.476;15.588;2022-12-18T06:53:14;19.80;;;8.50;;
73107;SDS011;61559;50.476;15.588;2022-12-18T06:55:45;23.80;;;7.40;;
73107;SDS011;61559;50.476;15.588;2022-12-18T06:58:16;24.00;;;10.40;;
73107;SDS011;61559;50.476;15.588;2022-12-18T07:00:48;17.90;;;8.00;;
73107;SDS011;61559;50.476;15.588;2022-12-18T07:05:49;23.70;;;7.70;;
73107;SDS011;61559;50.476;15.588;2022-12-18T07:08:20;16.70;;;6.10;;
73107;SDS011;61559;50.476;15.588;2022-12-18T07:10:51;12.40;;;4.80;;
73107;SDS011;61559;50.476;15.588;2022-12-18T07:13:23;25.60;;;9.20;;
73107;SDS011;61559;50.476;15.588;2022-12-18T07:15:55;24.00;;;8.40;;
73107;SDS011;61559;50.476;15.588;2022-12-18T07:18:35;15.90;;;5.60;;
73107;SDS011;61559;50.476;15.588;2022-12-18T07:21:07;19.60;;;7.40;;
73107;SDS011;61559;50.476;15.588;2022-12-18T07:23:41;12.90;;;4.10;;
73107;SDS011;61559;50.476;15.588;2022-12-18T07:26:13;13.00;;;5.00;;
73107;SDS011;61559;50.476;15.588;2022-12-18T07:28:46;23.10;;;8.40;;
73107;SDS011;61559;50.476;15.588;2022-12-18T07:31:18;16.30;;;7.40;;
73107;SDS011;61559;50.476;15.588;2022-12-18T07:33:50;23.20;;;8.30;;
73107;SDS011;61559;50.476;15.588;2022-12-18T07:36:22;20.00;;;5.70;;
73107;SDS011;61559;50.476;15.588;2022-12-18T07:41:24;17.90;;;5.80;;
73107;SDS011;61559;50.476;15.588;2022-12-18T07:43:55;10.60;;;3.90;;
73107;SDS011;61559;50.476;15.588;2022-12-18T07:46:25;12.60;;;4.90;;
73107;SDS011;61559;50.476;15.588;2022-12-18T07:48:56;17.60;;;6.70;;
73107;SDS011;61559;50.476;15.588;2022-12-18T07:51:28;25.10;;;9.20;;
73107;SDS011;61559;50.476;15.588;2022-12-18T07:54:00;17.10;;;6.00;;
73107;SDS011;61559;50.476;15.588;2022-12-18T07:56:31;25.80;;;9.80;;
73107;SDS011;61559;50.476;15.588;2022-12-18T07:59:05;22.70;;;7.90;;
73107;SDS011;61559;50.476;15.588;2022-12-18T08:01:36;19.80;;;7.60;;
73107;SDS011;61559;50.476;15.588;2022-12-18T08:04:07;18.50;;;5.90;;
73107;SDS011;61559;50.476;15.588;2022-12-18T08:06:38;25.00;;;9.20;;
73107;SDS011;61559;50.476;15.588;2022-12-18T08:09:14;17.30;;;5.90;;
73107;SDS011;61559;50.476;15.588;2022-12-18T08:11:46;23.40;;;8.40;;
73107;SDS011;61559;50.476;15.588;2022-12-18T08:14:17;18.60;;;7.60;;
73107;SDS011;61559;50.476;15.588;2022-12-18T08:16:48;15.10;;;6.10;;
73107;SDS011;61559;50.476;15.588;2022-12-18T08:19:19;22.10;;;8.20;;
73107;SDS011;61559;50.476;15.588;2022-12-18T08:21:50;17.00;;;6.90;;
73107;SDS011;61559;50.476;15.588;2022-12-18T08:24:24;17.90;;;7.50;;
73107;SDS011;61559;50.476;15.588;2022-12-18T08:26:55;20.00;;;7.70;;
73107;SDS011;61559;50.476;15.588;2022-12-18T08:29:46;22.50;;;7.30;;
73107;SDS011;61559;50.476;15.588;2022-12-18T08:32:17;26.10;;;9.30;;
73107;SDS011;61559;50.476;15.588;2022-12-18T08:34:48;21.60;;;7.30;;
73107;SDS011;61559;50.476;15.588;2022-12-18T08:37:19;25.00;;;8.30;;
73107;SDS011;61559;50.476;15.588;2022-12-18T08:39:50;27.80;;;10.10;;
73107;SDS011;61559;50.476;15.588;2022-12-18T08:42:21;23.50;;;7.40;;
73107;SDS011;61559;50.476;15.588;2022-12-18T08:45:10;29.80;;;11.20;;
73107;SDS011;61559;50.476;15.588;2022-12-18T08:47:41;32.50;;;11.10;;
73107;SDS011;61559;50.476;15.588;2022-12-18T08:50:13;21.40;;;7.40;;
73107;SDS011;61559;50.476;15.588;2022-12-18T08:52:45;19.00;;;5.20;;
73107;SDS011;61559;50.476;15.588;2022-12-18T08:55:16;10.70;;;4.40;;
73107;SDS011;61559;50.476;15.588;2022-12-18T08:57:49;17.90;;;6.50;;
73107;SDS011;61559;50.476;15.588;2022-12-18T09:00:20;19.60;;;7.50;;
73107;SDS011;61559;50.476;15.588;2022-12-18T09:02:52;30.20;;;9.90;;
73107;SDS011;61559;50.476;15.588;2022-12-18T09:05:24;18.30;;;7.40;;
73107;SDS011;61559;50.476;15.588;2022-12-18T09:07:55;24.30;;;9.00;;
73107;SDS011;61559;50.476;15.588;2022-12-18T09:10:26;31.50;;;10.10;;
73107;SDS011;61559;50.476;15.588;2022-12-18T09:12:57;30.40;;;9.40;;
73107;SDS011;61559;50.476;15.588;2022-12-18T09:15:28;31.20;;;12.10;;
73107;SDS011;61559;50.476;15.588;2022-12-18T09:17:59;25.90;;;9.10;;
73107;SDS011;61559;50.476;15.588;2022-12-18T09:20:30;19.40;;;7.30;;
73107;SDS011;61559;50.476;15.588;2022-12-18T09:23:01;21.90;;;8.10;;
73107;SDS011;61559;50.476;15.588;2022-12-18T09:25:32;26.70;;;10.10;;
73107;SDS011;61559;50.476;15.588;2022-12-18T09:28:05;21.90;;;9.80;;
73107;SDS011;61559;50.476;15.588;2022-12-18T09:30:42;13.60;;;4.80;;
73107;SDS011;61559;50.476;15.588;2022-12-18T09:33:17;14.80;;;5.30;;
73107;SDS011;61559;50.476;15.588;2022-12-18T09:35:48;23.30;;;8.50;;
73107;SDS011;61559;50.476;15.588;2022-12-18T09:38:19;19.10;;;7.40;;
73107;SDS011;61559;50.476;15.588;2022-12-18T09:40:51;18.40;;;8.00;;
73107;SDS011;61559;50.476;15.588;2022-12-18T09:43:28;22.50;;;7.80;;
73107;SDS011;61559;50.476;15.588;2022-12-18T09:46:05;29.40;;;10.40;;
73107;SDS011;61559;50.476;15.588;2022-12-18T09:48:40;18.90;;;7.90;;
73107;SDS011;61559;50.476;15.588;2022-12-18T09:51:16;21.70;;;8.50;;
73107;SDS011;61559;50.476;15.588;2022-12-18T09:53:51;22.50;;;7.70;;
73107;SDS011;61559;50.476;15.588;2022-12-18T09:56:26;19.60;;;7.80;;
73107;SDS011;61559;50.476;15.588;2022-12-18T09:59:03;30.20;;;9.60;;
73107;SDS011;61559;50.476;15.588;2022-12-18T10:01:35;24.30;;;8.60;;
73107;SDS011;61559;50.476;15.588;2022-12-18T10:04:11;16.70;;;5.70;;
73107;SDS011;61559;50.476;15.588;2022-12-18T10:06:44;21.20;;;7.50;;
73107;SDS011;61559;50.476;15.588;2022-12-18T10:09:23;18.70;;;7.90;;
73107;SDS011;61559;50.476;15.588;2022-12-18T10:12:04;24.80;;;10.50;;
73107;SDS011;61559;50.476;15.588;2022-12-18T10:14:44;24.80;;;9.10;;
73107;SDS011;61559;50.476;15.588;2022-12-18T10:17:23;19.30;;;7.40;;
73107;SDS011;61559;50.476;15.588;2022-12-18T10:20:08;22.00;;;8.10;;
73107;SDS011;61559;50.476;15.588;2022-12-18T10:22:47;27.70;;;8.80;;
73107;SDS011;61559;50.476;15.588;2022-12-18T10:25:26;26.70;;;8.20;;
73107;SDS011;61559;50.476;15.588;2022-12-18T10:28:09;23.50;;;9.40;;
73107;SDS011;61559;50.476;15.588;2022-12-18T10:30:43;76.20;;;28.30;;
73107;SDS011;61559;50.476;15.588;2022-12-18T10:33:15;23.60;;;8.70;;
73107;SDS011;61559;50.476;15.588;2022-12-18T10:35:49;24.80;;;9.60;;
73107;SDS011;61559;50.476;15.588;2022-12-18T10:38:22;17.50;;;7.50;;
73107;SDS011;61559;50.476;15.588;2022-12-18T10:40:56;21.60;;;9.10;;
73107;SDS011;61559;50.476;15.588;2022-12-18T10:43:28;20.00;;;7.70;;
73107;SDS011;61559;50.476;15.588;2022-12-18T10:46:02;19.00;;;7.50;;
73107;SDS011;61559;50.476;15.588;2022-12-18T10:48:50;21.20;;;8.50;;
73107;SDS011;61559;50.476;15.588;2022-12-18T10:51:25;25.50;;;8.90;;
73107;SDS011;61559;50.476;15.588;2022-12-18T10:53:59;17.30;;;7.70;;
73107;SDS011;61559;50.476;15.588;2022-12-18T10:56:33;20.90;;;7.80;;
73107;SDS011;61559;50.476;15.588;2022-12-18T10:59:06;24.60;;;8.10;;
73107;SDS011;61559;50.476;15.588;2022-12-18T11:04:04;19.60;;;7.90;;
73107;SDS011;61559;50.476;15.588;2022-12-18T11:06:52;26.00;;;9.30;;
73107;SDS011;61559;50.476;15.588;2022-12-18T11:09:26;22.70;;;8.40;;
73107;SDS011;61559;50.476;15.588;2022-12-18T11:12:00;24.40;;;9.40;;
73107;SDS011;61559;50.476;15.588;2022-12-18T11:14:41;15.20;;;5.40;;
73107;SDS011;61559;50.476;15.588;2022-12-18T11:17:19;21.70;;;7.90;;
73107;SDS011;61559;50.476;15.588;2022-12-18T11:19:57;17.90;;;6.20;;
73107;SDS011;61559;50.476;15.588;2022-12-18T11:22:31;9.80;;;3.80;;
73107;SDS011;61559;50.476;15.588;2022-12-18T11:25:04;15.30;;;6.30;;
73107;SDS011;61559;50.476;15.588;2022-12-18T11:28:00;20.40;;;8.30;;
73107;SDS011;61559;50.476;15.588;2022-12-18T11:30:33;21.30;;;7.40;;
73107;SDS011;61559;50.476;15.588;2022-12-18T11:33:05;21.10;;;8.40;;
73107;SDS011;61559;50.476;15.588;2022-12-18T11:35:44;25.80;;;8.00;;
73107;SDS011;61559;50.476;15.588;2022-12-18T11:38:20;23.50;;;8.10;;
73107;SDS011;61559;50.476;15.588;2022-12-18T11:40:55;21.00;;;9.40;;
73107;SDS011;61559;50.476;15.588;2022-12-18T11:43:31;24.40;;;9.50;;
73107;SDS011;61559;50.476;15.588;2022-12-18T11:46:10;19.30;;;7.70;;
73107;SDS011;61559;50.476;15.588;2022-12-18T11:48:48;16.90;;;7.30;;
73107;SDS011;61559;50.476;15.588;2022-12-18T11:51:26;12.40;;;5.20;;
73107;SDS011;61559;50.476;15.588;2022-12-18T11:54:09;24.40;;;7.30;;
73107;SDS011;61559;50.476;15.588;2022-12-18T11:56:45;16.00;;;5.50;;
73107;SDS011;61559;50.476;15.588;2022-12-18T11:59:21;13.80;;;5.90;;
73107;SDS011;61559;50.476;15.588;2022-12-18T12:02:02;16.40;;;6.00;;
73107;SDS011;61559;50.476;15.588;2022-12-18T12:04:53;10.50;;;3.80;;
73107;SDS011;61559;50.476;15.588;2022-12-18T12:07:43;25.20;;;9.00;;
73107;SDS011;61559;50.476;15.588;2022-12-18T12:10:29;30.10;;;12.50;;
73107;SDS011;61559;50.476;15.588;2022-12-18T12:13:15;26.00;;;10.00;;
73107;SDS011;61559;50.476;15.588;2022-12-18T12:16:01;18.80;;;6.80;;
73107;SDS011;61559;50.476;15.588;2022-12-18T12:18:43;15.20;;;5.10;;
73107;SDS011;61559;50.476;15.588;2022-12-18T12:21:26;25.20;;;10.90;;
73107;SDS011;61559;50.476;15.588;2022-12-18T12:24:09;22.90;;;9.20;;
73107;SDS011;61559;50.476;15.588;2022-12-18T12:26:49;20.00;;;9.00;;
73107;SDS011;61559;50.476;15.588;2022-12-18T12:29:31;13.20;;;5.30;;
73107;SDS011;61559;50.476;15.588;2022-12-18T12:32:17;16.40;;;6.90;;
73107;SDS011;61559;50.476;15.588;2022-12-18T12:35:03;26.20;;;9.40;;
73107;SDS011;61559;50.476;15.588;2022-12-18T12:37:46;22.40;;;10.40;;
73107;SDS011;61559;50.476;15.588;2022-12-18T12:40:23;24.60;;;10.00;;
73107;SDS011;61559;50.476;15.588;2022-12-18T12:43:20;16.80;;;7.10;;
73107;SDS011;61559;50.476;15.588;2022-12-18T12:45:57;20.20;;;7.20;;
73107;SDS011;61559;50.476;15.588;2022-12-18T12:48:36;18.10;;;5.90;;
73107;SDS011;61559;50.476;15.588;2022-12-18T12:53:45;18.50;;;8.10;;
73107;SDS011;61559;50.476;15.588;2022-12-18T12:56:18;19.80;;;6.80;;
73107;SDS011;61559;50.476;15.588;2022-12-18T12:58:54;32.30;;;12.50;;
73107;SDS011;61559;50.476;15.588;2022-12-18T13:01:34;26.70;;;10.20;;
73107;SDS011;61559;50.476;15.588;2022-12-18T13:04:15;21.60;;;7.20;;
73107;SDS011;61559;50.476;15.588;2022-12-18T13:06:55;15.70;;;4.70;;
73107;SDS011;61559;50.476;15.588;2022-12-18T13:09:34;20.00;;;8.50;;
73107;SDS011;61559;50.476;15.588;2022-12-18T13:12:26;31.70;;;12.70;;
73107;SDS011;61559;50.476;15.588;2022-12-18T13:15:20;19.70;;;6.60;;
73107;SDS011;61559;50.476;15.588;2022-12-18T13:18:16;15.60;;;7.10;;
73107;SDS011;61559;50.476;15.588;2022-12-18T13:20:49;19.00;;;8.10;;
73107;SDS011;61559;50.476;15.588;2022-12-18T13:23:34;40.60;;;13.40;;
73107;SDS011;61559;50.476;15.588;2022-12-18T13:29:09;20.10;;;7.40;;
73107;SDS011;61559;50.476;15.588;2022-12-18T13:32:01;27.40;;;11.10;;
73107;SDS011;61559;50.476;15.588;2022-12-18T13:43:28;24.00;;;7.60;;
73107;SDS011;61559;50.476;15.588;2022-12-18T13:46:04;53.50;;;18.30;;
73107;SDS011;61559;50.476;15.588;2022-12-18T13:48:50;42.10;;;14.20;;
73107;SDS011;61559;50.476;15.588;2022-12-18T13:51:24;23.40;;;8.40;;
73107;SDS011;61559;50.476;15.588;2022-12-18T13:53:58;33.00;;;10.50;;
73107;SDS011;61559;50.476;15.588;2022-12-18T13:56:31;16.20;;;6.70;;
73107;SDS011;61559;50.476;15.588;2022-12-18T13:59:16;24.10;;;8.60;;
73107;SDS011;61559;50.476;15.588;2022-12-18T14:01:52;22.10;;;7.90;;
73107;SDS011;61559;50.476;15.588;2022-12-18T14:04:27;26.00;;;8.90;;
73107;SDS011;61559;50.476;15.588;2022-12-18T14:07:02;11.80;;;5.50;;
73107;SDS011;61559;50.476;15.588;2022-12-18T14:09:39;21.60;;;8.10;;
73107;SDS011;61559;50.476;15.588;2022-12-18T14:12:16;16.30;;;6.90;;
73107;SDS011;61559;50.476;15.588;2022-12-18T14:15:09;9.70;;;4.30;;
73107;SDS011;61559;50.476;15.588;2022-12-18T14:17:53;16.40;;;5.70;;
73107;SDS011;61559;50.476;15.588;2022-12-18T14:20:27;11.70;;;4.70;;
73107;SDS011;61559;50.476;15.588;2022-12-18T14:23:01;23.80;;;9.00;;
73107;SDS011;61559;50.476;15.588;2022-12-18T14:28:08;11.80;;;4.50;;
73107;SDS011;61559;50.476;15.588;2022-12-18T14:30:45;16.20;;;6.70;;
73107;SDS011;61559;50.476;15.588;2022-12-18T14:33:16;21.50;;;7.30;;
73107;SDS011;61559;50.476;15.588;2022-12-18T14:35:56;14.90;;;6.00;;
73107;SDS011;61559;50.476;15.588;2022-12-18T14:38:29;20.80;;;7.10;;
73107;SDS011;61559;50.476;15.588;2022-12-18T14:41:02;20.90;;;8.20;;
73107;SDS011;61559;50.476;15.588;2022-12-18T14:43:35;11.40;;;5.10;;
73107;SDS011;61559;50.476;15.588;2022-12-18T14:46:24;16.60;;;5.70;;
73107;SDS011;61559;50.476;15.588;2022-12-18T14:48:58;19.10;;;7.80;;
73107;SDS011;61559;50.476;15.588;2022-12-18T14:51:31;19.00;;;7.60;;
73107;SDS011;61559;50.476;15.588;2022-12-18T14:54:04;23.00;;;7.50;;
73107;SDS011;61559;50.476;15.588;2022-12-18T14:56:44;18.70;;;7.00;;
73107;SDS011;61559;50.476;15.588;2022-12-18T14:59:19;19.20;;;7.60;;
73107;SDS011;61559;50.476;15.588;2022-12-18T15:01:56;15.40;;;6.30;;
73107;SDS011;61559;50.476;15.588;2022-12-18T15:04:33;20.20;;;8.40;;
73107;SDS011;61559;50.476;15.588;2022-12-18T15:07:10;25.40;;;8.20;;
73107;SDS011;61559;50.476;15.588;2022-12-18T15:09:44;24.20;;;9.00;;
73107;SDS011;61559;50.476;15.588;2022-12-18T15:12:34;21.90;;;7.80;;
73107;SDS011;61559;50.476;15.588;2022-12-18T15:18:12;20.10;;;8.60;;
73107;SDS011;61559;50.476;15.588;2022-12-18T15:20:48;12.10;;;5.00;;
73107;SDS011;61559;50.476;15.588;2022-12-18T15:23:21;17.10;;;7.30;;
73107;SDS011;61559;50.476;15.588;2022-12-18T15:25:57;17.40;;;6.80;;
73107;SDS011;61559;50.476;15.588;2022-12-18T15:28:33;17.40;;;7.60;;
73107;SDS011;61559;50.476;15.588;2022-12-18T15:31:19;20.30;;;8.70;;
73107;SDS011;61559;50.476;15.588;2022-12-18T15:34:02;18.00;;;7.70;;